British Tenacity — MDTE9 — position and weather

sailwx.info

Track history (hours):
 
Tides and Currents Weather Stations Pressure Air Temp Water Temp Dewpoint Dewpoint Depression Visibility Wind Speed Wind Dir Waves Ship Positions

British Tenacity

Last reported at 2016-May-29 14:22 UTC. Time now 2016-May-31 20:02 UTC.
Position N 29°21' W 094°43'.

Type: Ship (hazmat cat C). MMSI: 235825000.

Date/timePositionNaut miles runAvg speedWind from/ knotsBaromVisibWave heightAir tempDewpointWater temp
2016-May-29 14:22N 29°21' W 094°43'0 0.0
2016-May-29 10:27N 29°21' W 094°43'0 0.0
2016-May-29 08:33N 29°21' W 094°43'0 0.0
2016-May-29 07:24N 29°21' W 094°43'0 0.0
2016-May-29 06:33N 29°21' W 094°43'10 0.6
2016-May-28 14:13N 29°17' W 094°33'0 0.0
2016-May-28 12:08N 29°18' W 094°33'0 0.0
2016-May-28 07:32N 29°17' W 094°33'  
2016-May-20 06:33N 11°09' W 061°54'1414.0
2016-May-20 05:33N 11°04' W 061°41'1411.0
2016-May-20 04:18N 11°03' W 061°27'1 0.7
2016-May-20 02:25N 11°01' W 061°27'1 0.8
2016-May-20 01:05N 11°02' W 061°28'1 1.1
2016-May-20 00:32N 11°02' W 061°29'1 0.7
2016-May-19 23:21N 11°02' W 061°30'7 1.7
2016-May-19 19:08N 10°57' W 061°34'4 7.3
2016-May-19 18:33N 10°53' W 061°37'1510.5
2016-May-19 17:07N 10°42' W 061°47'713.1
2016-May-19 16:34N 10°35' W 061°44'1413.6
2016-May-19 15:33N 10°26' W 061°34'1 0.8
2016-May-19 14:33N 10°25' W 061°33'  
Track history (hours):
 
Tides and Currents Weather Stations Pressure Air Temp Water Temp Dewpoint Dewpoint Depression Visibility Wind Speed Wind Dir Waves Ship Positions

British Tenacity

Last reported at 2016-May-29 14:22 UTC. Time now 2016-May-31 20:02 UTC.
Position N 29°21' W 094°43'.

Type: Ship (hazmat cat C). MMSI: 235825000.

Date/timePositionNaut miles runAvg speedWind from/ knotsBaromVisibWave heightAir tempDewpointWater temp
2016-May-29 14:22N 29°21' W 094°43'0 0.0
2016-May-29 10:27N 29°21' W 094°43'0 0.0
2016-May-29 08:33N 29°21' W 094°43'0 0.0
2016-May-29 07:24N 29°21' W 094°43'0 0.0
2016-May-29 06:33N 29°21' W 094°43'10 0.6
2016-May-28 14:13N 29°17' W 094°33'0 0.0
2016-May-28 12:08N 29°18' W 094°33'0 0.0
2016-May-28 07:32N 29°17' W 094°33'  
2016-May-20 06:33N 11°09' W 061°54'1414.0
2016-May-20 05:33N 11°04' W 061°41'1411.0
2016-May-20 04:18N 11°03' W 061°27'1 0.7
2016-May-20 02:25N 11°01' W 061°27'1 0.8
2016-May-20 01:05N 11°02' W 061°28'1 1.1
2016-May-20 00:32N 11°02' W 061°29'1 0.7
2016-May-19 23:21N 11°02' W 061°30'7 1.7
2016-May-19 19:08N 10°57' W 061°34'4 7.3
2016-May-19 18:33N 10°53' W 061°37'1510.5
2016-May-19 17:07N 10°42' W 061°47'713.1
2016-May-19 16:34N 10°35' W 061°44'1413.6
2016-May-19 15:33N 10°26' W 061°34'1 0.8
2016-May-19 14:33N 10°25' W 061°33'  

Dump ship's entire track history